X  Zatvori METAR podaci zračne luke     ETAR Ramstein Air Base
Temperatura
26°C Temperatura
11°C Točka rosišta
39% Vlaga



Vjetar
5 KM/S
3 MPS
1 M/S
3 Čvorovi



270°
Z
Trenutna situacija

Djelimično oblačno Djelimično oblačno
Tlak zraka 1013.21 (hPa) - 29.92 (inHg)
Vidljivost 6 (milje) - 9.7 (km)
Zračna luka
Kôd zračne luke ETAR

Lokacija: Ramstein Air Base
Udaljenost: 25 (km)

Metar:
ETAR 251355Z 27003KT 9999 FEW190 26/11 A2992 RMK AO2A SLP133 T02580108

Vrijeme: 25-07-2024 15:55 CEST